Main page
METAR-TAF:

METAR-TAF

Airports :

Zaragoza, Spain

Zaragoza Airport

latitude: 41-40N, longitude: 001-01W, elevation: 263 m

Current weather observation

The report was made 13 minutes ago, at 07:00 UTC
Wind 15 kt from the West
Temperature 6°C
Humidity 75%
Pressure 1024 hPa
Visibility 10 km or more
no clouds below 1500 m and no cumulonimbus

METAR: LEZG 180700Z 28015KT CAVOK 06/02 Q1024

Time: 08:13 (07:13 UTC)

Forecast

The report was made 2 hours and 13 minutes ago, at 05:00 UTC
Forecast valid from 18 at 06 UTC to 19 at 06 UTC
Wind 18 kt from the West/Northwest
Visibility 10 km or more
Few clouds at a height of 5000 ft
Temporary
from 18 at 06 UTC to 18 at 19 UTC
Wind 20 kt from the West/Northwest with gusts up to 35 kt

TAF: LEZG 180500Z 1806/1906 30018KT 9999 FEW050 TX15/1814Z TN05/1806Z TEMPO 1806/1819 30020G35KT

Weather observations and forecasts of more than 4000 airports (METAR and TAF reports).

The available stations are represented by yellow and red dots on the map.

Hover mouse over dot to see the name of the station.

Then click to see weather observations and forecasts.

To change the map : click on the green buttons with a black cross to zoom in, on the green button with a dash to zoom out, or on the green arrows for adjacent maps.


METAR-TAF: